TimeCDT,TemperatureF,Dew PointF,Humidity,Sea Level PressureIn,VisibilityMPH,Wind Direction,Wind SpeedMPH,Gust SpeedMPH,PrecipitationIn,Events,Conditions,WindDirDegrees,DateUTC
12:13 AM,62.6,55.4,77,30.08,10.0,Calm,Calm,-,N/A,,Clear,0,2013-07-03 05:13:00
12:34 AM,62.6,55.4,77,30.08,10.0,Calm,Calm,-,N/A,,Clear,0,2013-07-03 05:34:00
12:54 AM,62.6,55.4,77,30.08,10.0,SE,3.5,-,N/A,,Clear,140,2013-07-03 05:54:00
1:13 AM,64.4,55.4,73,30.08,10.0,SSE,4.6,-,N/A,,Clear,150,2013-07-03 06:13:00
1:34 AM,66.2,55.4,68,30.08,10.0,SSE,4.6,-,N/A,,Clear,160,2013-07-03 06:34:00
1:54 AM,66.2,57.2,73,30.07,10.0,SSE,4.6,-,N/A,,Clear,160,2013-07-03 06:54:00
2:13 AM,66.2,55.4,68,30.07,10.0,South,4.6,-,N/A,,Clear,180,2013-07-03 07:13:00
2:34 AM,66.2,55.4,68,30.07,10.0,South,4.6,-,N/A,,Clear,170,2013-07-03 07:34:00
2:54 AM,66.2,55.4,68,30.07,10.0,SSE,4.6,-,N/A,,Clear,150,2013-07-03 07:54:00
3:13 AM,66.2,55.4,68,30.06,10.0,South,3.5,-,N/A,,Clear,170,2013-07-03 08:13:00
3:34 AM,64.4,55.4,73,30.06,10.0,South,4.6,-,N/A,,Clear,170,2013-07-03 08:34:00
3:54 AM,64.4,55.4,73,30.06,10.0,South,3.5,-,N/A,,Clear,180,2013-07-03 08:54:00
4:13 AM,64.4,55.4,73,30.06,10.0,SSE,3.5,-,N/A,,Clear,160,2013-07-03 09:13:00
4:34 AM,62.6,55.4,77,30.06,10.0,Calm,Calm,-,N/A,,Clear,0,2013-07-03 09:34:00
4:54 AM,62.6,55.4,77,30.06,10.0,Calm,Calm,-,N/A,,Clear,0,2013-07-03 09:54:00
5:14 AM,62.6,55.4,77,30.06,10.0,Calm,Calm,-,N/A,,Clear,0,2013-07-03 10:14:00
5:34 AM,62.6,55.4,77,30.07,10.0,SSE,3.5,-,N/A,,Clear,160,2013-07-03 10:34:00
5:54 AM,60.8,55.4,82,30.07,7.0,Calm,Calm,-,N/A,,Clear,0,2013-07-03 10:54:00
6:14 AM,62.6,53.6,72,30.07,10.0,Calm,Calm,-,N/A,,Clear,0,2013-07-03 11:14:00
6:34 AM,64.4,55.4,73,30.07,10.0,Calm,Calm,-,N/A,,Clear,0,2013-07-03 11:34:00
6:54 AM,64.4,55.4,73,30.07,10.0,Calm,Calm,-,N/A,,Clear,0,2013-07-03 11:54:00
7:14 AM,66.2,55.4,68,30.08,10.0,Calm,Calm,-,N/A,,Clear,0,2013-07-03 12:14:00
7:34 AM,68.0,51.8,56,30.08,10.0,SSW,5.8,-,N/A,,Clear,200,2013-07-03 12:34:00
7:54 AM,69.8,51.8,53,30.08,10.0,South,4.6,-,N/A,,Clear,190,2013-07-03 12:54:00
8:13 AM,69.8,50.0,49,30.09,10.0,South,5.8,-,N/A,,Clear,190,2013-07-03 13:13:00
8:34 AM,71.6,51.8,50,30.09,10.0,South,5.8,-,N/A,,Clear,180,2013-07-03 13:34:00
8:54 AM,71.6,51.8,50,30.09,10.0,SSW,6.9,-,N/A,,Clear,200,2013-07-03 13:54:00
9:13 AM,73.4,51.8,47,30.09,10.0,South,5.8,-,N/A,,Clear,180,2013-07-03 14:13:00
9:34 AM,73.4,53.6,50,30.08,10.0,SSW,5.8,-,N/A,,Clear,200,2013-07-03 14:34:00
9:54 AM,73.4,53.6,50,30.08,10.0,South,4.6,-,N/A,,Clear,180,2013-07-03 14:54:00
10:13 AM,75.2,53.6,47,30.08,10.0,SSW,3.5,-,N/A,,Clear,210,2013-07-03 15:13:00
10:34 AM,77.0,53.6,44,30.07,10.0,SW,3.5,-,N/A,,Clear,230,2013-07-03 15:34:00
10:54 AM,77.0,51.8,41,30.07,10.0,East,3.5,-,N/A,,Scattered Clouds,80,2013-07-03 15:54:00
11:14 AM,78.8,50.0,36,30.07,10.0,East,4.6,-,N/A,,Scattered Clouds,90,2013-07-03 16:14:00
11:34 AM,78.8,48.2,34,30.07,10.0,SE,6.9,-,N/A,,Clear,140,2013-07-03 16:34:00
11:54 AM,78.8,48.2,34,30.07,10.0,SSE,6.9,-,N/A,,Clear,160,2013-07-03 16:54:00
12:14 PM,78.8,50.0,36,30.06,10.0,SSW,4.6,-,N/A,,Clear,200,2013-07-03 17:14:00
12:34 PM,80.6,46.4,30,30.06,10.0,South,8.1,-,N/A,,Clear,180,2013-07-03 17:34:00
12:54 PM,78.8,44.6,30,30.05,10.0,SE,4.6,-,N/A,,Clear,140,2013-07-03 17:54:00
1:14 PM,80.6,46.4,30,30.05,10.0,ESE,3.5,-,N/A,,Clear,110,2013-07-03 18:14:00
1:34 PM,80.6,46.4,30,30.05,10.0,SSE,6.9,-,N/A,,Clear,160,2013-07-03 18:34:00
1:54 PM,80.6,46.4,30,30.04,10.0,SE,6.9,-,N/A,,Clear,140,2013-07-03 18:54:00
2:14 PM,80.6,46.4,30,30.04,10.0,South,6.9,-,N/A,,Clear,170,2013-07-03 19:14:00
2:34 PM,80.6,44.6,28,30.03,10.0,Calm,Calm,-,N/A,,Clear,0,2013-07-03 19:34:00
2:53 PM,80.6,44.6,28,30.03,10.0,SE,4.6,-,N/A,,Clear,130,2013-07-03 19:53:00
3:14 PM,80.6,44.6,28,30.02,10.0,SE,3.5,-,N/A,,Scattered Clouds,140,2013-07-03 20:14:00
3:33 PM,82.4,44.6,26,30.01,10.0,SW,4.6,-,N/A,,Scattered Clouds,220,2013-07-03 20:33:00
3:54 PM,82.4,42.8,25,30.01,10.0,Calm,Calm,-,N/A,,Clear,0,2013-07-03 20:54:00
4:14 PM,80.6,42.8,26,30.01,10.0,Calm,Calm,-,N/A,,Clear,0,2013-07-03 21:14:00
4:33 PM,82.4,42.8,25,30.01,10.0,West,3.5,-,N/A,,Clear,260,2013-07-03 21:33:00
4:54 PM,82.4,42.8,25,30.00,10.0,Calm,Calm,-,N/A,,Clear,0,2013-07-03 21:54:00
5:14 PM,82.4,44.6,26,30.00,10.0,West,4.6,-,N/A,,Clear,260,2013-07-03 22:14:00
5:33 PM,82.4,42.8,25,29.99,10.0,Calm,Calm,-,N/A,,Clear,0,2013-07-03 22:33:00
5:54 PM,82.4,42.8,25,29.98,10.0,Calm,Calm,-,N/A,,Clear,0,2013-07-03 22:54:00
6:14 PM,82.4,42.8,25,29.98,10.0,Calm,Calm,-,N/A,,Clear,0,2013-07-03 23:14:00
6:33 PM,82.4,42.8,25,29.98,10.0,WSW,3.5,-,N/A,,Clear,240,2013-07-03 23:33:00
6:54 PM,80.6,42.8,26,29.98,10.0,Calm,Calm,-,N/A,,Clear,0,2013-07-03 23:54:00
7:14 PM,80.6,44.6,28,29.98,10.0,Calm,Calm,-,N/A,,Clear,0,2013-07-04 00:14:00
7:33 PM,80.6,48.2,32,29.98,10.0,SSW,4.6,-,N/A,,Clear,200,2013-07-04 00:33:00
7:54 PM,78.8,51.8,39,29.98,10.0,SSE,3.5,-,N/A,,Clear,160,2013-07-04 00:54:00
8:14 PM,77.0,51.8,41,29.98,10.0,Calm,Calm,-,N/A,,Clear,0,2013-07-04 01:14:00
8:33 PM,75.2,53.6,47,29.98,10.0,Calm,Calm,-,N/A,,Clear,0,2013-07-04 01:33:00
8:54 PM,73.4,53.6,50,29.98,10.0,Calm,Calm,-,N/A,,Clear,0,2013-07-04 01:54:00
9:14 PM,71.6,55.4,57,29.98,10.0,Calm,Calm,-,N/A,,Clear,0,2013-07-04 02:14:00
9:33 PM,69.8,57.2,64,29.98,10.0,Calm,Calm,-,N/A,,Clear,0,2013-07-04 02:33:00
9:54 PM,71.6,55.4,57,29.99,10.0,South,4.6,-,N/A,,Clear,180,2013-07-04 02:54:00
10:13 PM,71.6,51.8,50,29.99,10.0,South,5.8,-,N/A,,Clear,170,2013-07-04 03:13:00
10:34 PM,71.6,51.8,50,30.00,10.0,SSE,4.6,-,N/A,,Clear,150,2013-07-04 03:34:00
10:54 PM,69.8,53.6,56,30.00,10.0,SSE,4.6,-,N/A,,Scattered Clouds,160,2013-07-04 03:54:00
11:13 PM,69.8,53.6,56,30.00,10.0,South,4.6,-,N/A,,Mostly Cloudy,170,2013-07-04 04:13:00
11:34 PM,69.8,53.6,56,30.01,10.0,South,4.6,-,N/A,,Scattered Clouds,170,2013-07-04 04:34:00
11:54 PM,69.8,53.6,56,30.01,10.0,South,5.8,-,N/A,,Clear,170,2013-07-04 04:54:00